C. Angelo — WCZ5866 — position and weather

sailwx.info

Track history (hours):
 
Tides and Currents Weather Stations Pressure Air Temp Water Temp Dewpoint Dewpoint Depression Visibility Wind Speed Wind Dir Waves Ship Positions

C. Angelo

Owner: G T 110 INC, NEW HAVEN, CT. More information available from US FCC via Universal Licensing System and Coast Guard Vessel Documentation Center.

Last reported at 2014-Oct-25 09:33 UTC. Time now 2014-Oct-25 10:15 UTC.
Position N 41°48' W 071°23'.

Length 30 m; draft 4.1 m.

Type: Tug. MMSI: 366988420.

Date/timePositionNaut miles runAvg speedWind from/ knotsBaromVisibWave heightAir tempDewpointWater temp
2014-Oct-25 09:33N 41°48' W 071°23'0 0.0
2014-Oct-25 08:33N 41°48' W 071°23'0 0.0
2014-Oct-25 07:33N 41°48' W 071°23'0 0.0
2014-Oct-25 06:33N 41°48' W 071°23'0 0.0
2014-Oct-25 05:33N 41°48' W 071°23'0 0.0
2014-Oct-25 04:33N 41°48' W 071°23'0 0.0
2014-Oct-25 03:33N 41°48' W 071°23'0 0.0
2014-Oct-25 02:33N 41°48' W 071°23'0 0.0
2014-Oct-25 01:17N 41°48' W 071°23'0 0.0
2014-Oct-24 22:13N 41°48' W 071°23'0 0.0
2014-Oct-24 21:33N 41°48' W 071°23'0 0.0
2014-Oct-24 17:33N 41°48' W 071°23'0 0.0
2014-Oct-24 16:33N 41°48' W 071°23'0 0.0
2014-Oct-24 15:33N 41°48' W 071°23'0 0.0
2014-Oct-24 14:33N 41°48' W 071°23'0 0.0
2014-Oct-24 13:33N 41°48' W 071°23'0 0.0
2014-Oct-24 12:33N 41°48' W 071°23'5 4.8
2014-Oct-24 11:33N 41°43' W 071°21'7 6.6
2014-Oct-24 10:33N 41°37' W 071°18'6 6.2
2014-Oct-24 09:33N 41°31' W 071°21'4 4.2
2014-Oct-24 08:34N 41°28' W 071°23'7 7.1
2014-Oct-24 07:33N 41°21' W 071°25'7 7.1
2014-Oct-24 06:33N 41°19' W 071°35'8 7.9
2014-Oct-24 05:34N 41°18' W 071°45'8 7.9
2014-Oct-24 04:33N 41°15' W 071°55'7 7.0
2014-Oct-24 03:34N 41°14' W 072°04'6 6.0
2014-Oct-24 02:33N 41°14' W 072°12'6 5.8
2014-Oct-24 01:33N 41°12' W 072°20'6 5.7
2014-Oct-24 00:34N 41°11' W 072°27'6 5.9
2014-Oct-23 23:34N 41°10' W 072°35'7 6.6
2014-Oct-23 22:34N 41°11' W 072°43'7 7.0
2014-Oct-23 21:34N 41°12' W 072°53'4 3.9
2014-Oct-23 20:34N 41°15' W 072°55'1 0.7
2014-Oct-23 19:28N 41°16' W 072°55'4 4.4
2014-Oct-23 18:33N 41°12' W 072°55'7 6.5
2014-Oct-23 17:33N 41°08' W 073°02'7 7.4
2014-Oct-23 16:33N 41°05' W 073°10'7 7.2
2014-Oct-23 15:33N 41°02' W 073°19'15 6.7
2014-Oct-23 13:22N 40°56' W 073°36'6 6.5
2014-Oct-23 12:26N 40°53' W 073°44'12 4.1
2014-Oct-23 09:32N 40°46' W 073°57'7 7.0
2014-Oct-23 08:34N 40°41' W 074°02'4 4.0
2014-Oct-23 07:34N 40°37' W 074°03'4 3.9
2014-Oct-23 06:34N 40°33' W 074°02'4 4.2
2014-Oct-23 05:33N 40°30' W 073°57'4 3.6
2014-Oct-23 04:33N 40°28' W 073°54'45 3.4
2014-Oct-22 15:13N 39°43' W 074°00'  
2014-Oct-16 08:18N 36°49' W 075°50'7 8.9
2014-Oct-16 07:33N 36°54' W 075°55'8 8.1
2014-Oct-16 06:31N 36°58' W 076°05'8 8.0
2014-Oct-16 05:33N 37°00' W 076°14'7 6.7
2014-Oct-16 04:31N 36°56' W 076°20'4 4.1
2014-Oct-16 03:33N 36°52' W 076°19'0 0.0
2014-Oct-16 02:32N 36°52' W 076°19'0 0.0
2014-Oct-16 01:29N 36°52' W 076°19'0 0.0
2014-Oct-16 00:21N 36°52' W 076°19'0 0.0
2014-Oct-15 22:25N 36°52' W 076°19'0 0.0
2014-Oct-15 21:12N 36°52' W 076°19'0 0.0
2014-Oct-15 20:21N 36°52' W 076°19'0 0.0
2014-Oct-15 19:21N 36°52' W 076°19'0 0.0
2014-Oct-15 18:24N 36°52' W 076°19'0 0.0
2014-Oct-15 17:20N 36°52' W 076°19'0 0.0
2014-Oct-15 16:33N 36°52' W 076°19'0 0.0
2014-Oct-15 15:22N 36°52' W 076°19'0 0.0
2014-Oct-15 14:32N 36°52' W 076°19'0 0.0
2014-Oct-15 13:33N 36°52' W 076°19'0 0.0
2014-Oct-15 12:33N 36°52' W 076°19'0 0.0
2014-Oct-15 11:32N 36°52' W 076°19'0 0.0
2014-Oct-15 10:33N 36°52' W 076°19'  
Track history (hours):
 
Tides and Currents Weather Stations Pressure Air Temp Water Temp Dewpoint Dewpoint Depression Visibility Wind Speed Wind Dir Waves Ship Positions

C. Angelo

Owner: G T 110 INC, NEW HAVEN, CT. More information available from US FCC via Universal Licensing System and Coast Guard Vessel Documentation Center.

Last reported at 2014-Oct-25 09:33 UTC. Time now 2014-Oct-25 10:15 UTC.
Position N 41°48' W 071°23'.

Length 30 m; draft 4.1 m.

Type: Tug. MMSI: 366988420.

Date/timePositionNaut miles runAvg speedWind from/ knotsBaromVisibWave heightAir tempDewpointWater temp
2014-Oct-25 09:33N 41°48' W 071°23'0 0.0
2014-Oct-25 08:33N 41°48' W 071°23'0 0.0
2014-Oct-25 07:33N 41°48' W 071°23'0 0.0
2014-Oct-25 06:33N 41°48' W 071°23'0 0.0
2014-Oct-25 05:33N 41°48' W 071°23'0 0.0
2014-Oct-25 04:33N 41°48' W 071°23'0 0.0
2014-Oct-25 03:33N 41°48' W 071°23'0 0.0
2014-Oct-25 02:33N 41°48' W 071°23'0 0.0
2014-Oct-25 01:17N 41°48' W 071°23'0 0.0
2014-Oct-24 22:13N 41°48' W 071°23'0 0.0
2014-Oct-24 21:33N 41°48' W 071°23'0 0.0
2014-Oct-24 17:33N 41°48' W 071°23'0 0.0
2014-Oct-24 16:33N 41°48' W 071°23'0 0.0
2014-Oct-24 15:33N 41°48' W 071°23'0 0.0
2014-Oct-24 14:33N 41°48' W 071°23'0 0.0
2014-Oct-24 13:33N 41°48' W 071°23'0 0.0
2014-Oct-24 12:33N 41°48' W 071°23'5 4.8
2014-Oct-24 11:33N 41°43' W 071°21'7 6.6
2014-Oct-24 10:33N 41°37' W 071°18'6 6.2
2014-Oct-24 09:33N 41°31' W 071°21'4 4.2
2014-Oct-24 08:34N 41°28' W 071°23'7 7.1
2014-Oct-24 07:33N 41°21' W 071°25'7 7.1
2014-Oct-24 06:33N 41°19' W 071°35'8 7.9
2014-Oct-24 05:34N 41°18' W 071°45'8 7.9
2014-Oct-24 04:33N 41°15' W 071°55'7 7.0
2014-Oct-24 03:34N 41°14' W 072°04'6 6.0
2014-Oct-24 02:33N 41°14' W 072°12'6 5.8
2014-Oct-24 01:33N 41°12' W 072°20'6 5.7
2014-Oct-24 00:34N 41°11' W 072°27'6 5.9
2014-Oct-23 23:34N 41°10' W 072°35'7 6.6
2014-Oct-23 22:34N 41°11' W 072°43'7 7.0
2014-Oct-23 21:34N 41°12' W 072°53'4 3.9
2014-Oct-23 20:34N 41°15' W 072°55'1 0.7
2014-Oct-23 19:28N 41°16' W 072°55'4 4.4
2014-Oct-23 18:33N 41°12' W 072°55'7 6.5
2014-Oct-23 17:33N 41°08' W 073°02'7 7.4
2014-Oct-23 16:33N 41°05' W 073°10'7 7.2
2014-Oct-23 15:33N 41°02' W 073°19'15 6.7
2014-Oct-23 13:22N 40°56' W 073°36'6 6.5
2014-Oct-23 12:26N 40°53' W 073°44'12 4.1
2014-Oct-23 09:32N 40°46' W 073°57'7 7.0
2014-Oct-23 08:34N 40°41' W 074°02'4 4.0
2014-Oct-23 07:34N 40°37' W 074°03'4 3.9
2014-Oct-23 06:34N 40°33' W 074°02'4 4.2
2014-Oct-23 05:33N 40°30' W 073°57'4 3.6
2014-Oct-23 04:33N 40°28' W 073°54'45 3.4
2014-Oct-22 15:13N 39°43' W 074°00'  
2014-Oct-16 08:18N 36°49' W 075°50'7 8.9
2014-Oct-16 07:33N 36°54' W 075°55'8 8.1
2014-Oct-16 06:31N 36°58' W 076°05'8 8.0
2014-Oct-16 05:33N 37°00' W 076°14'7 6.7
2014-Oct-16 04:31N 36°56' W 076°20'4 4.1
2014-Oct-16 03:33N 36°52' W 076°19'0 0.0
2014-Oct-16 02:32N 36°52' W 076°19'0 0.0
2014-Oct-16 01:29N 36°52' W 076°19'0 0.0
2014-Oct-16 00:21N 36°52' W 076°19'0 0.0
2014-Oct-15 22:25N 36°52' W 076°19'0 0.0
2014-Oct-15 21:12N 36°52' W 076°19'0 0.0
2014-Oct-15 20:21N 36°52' W 076°19'0 0.0
2014-Oct-15 19:21N 36°52' W 076°19'0 0.0
2014-Oct-15 18:24N 36°52' W 076°19'0 0.0
2014-Oct-15 17:20N 36°52' W 076°19'0 0.0
2014-Oct-15 16:33N 36°52' W 076°19'0 0.0
2014-Oct-15 15:22N 36°52' W 076°19'0 0.0
2014-Oct-15 14:32N 36°52' W 076°19'0 0.0
2014-Oct-15 13:33N 36°52' W 076°19'0 0.0
2014-Oct-15 12:33N 36°52' W 076°19'0 0.0
2014-Oct-15 11:32N 36°52' W 076°19'0 0.0
2014-Oct-15 10:33N 36°52' W 076°19'  

Dump ship's entire track history